sensor_id;sensor_type;location;lat;lon;timestamp;temperature;humidity
52209;DHT22;38507;53.132;6.394;2023-12-14T00:01:21;4.50;99.90
52209;DHT22;38507;53.132;6.394;2023-12-14T00:03:47;5.10;99.90
52209;DHT22;38507;53.132;6.394;2023-12-14T00:06:14;4.60;99.90
52209;DHT22;38507;53.132;6.394;2023-12-14T00:08:40;4.50;99.90
52209;DHT22;38507;53.132;6.394;2023-12-14T00:11:10;4.50;99.90
52209;DHT22;38507;53.132;6.394;2023-12-14T00:13:36;4.50;99.90
52209;DHT22;38507;53.132;6.394;2023-12-14T00:16:02;4.50;99.90
52209;DHT22;38507;53.132;6.394;2023-12-14T00:18:28;4.40;99.90
52209;DHT22;38507;53.132;6.394;2023-12-14T00:20:54;4.50;99.90
52209;DHT22;38507;53.132;6.394;2023-12-14T00:23:23;4.40;99.90
52209;DHT22;38507;53.132;6.394;2023-12-14T00:25:49;4.50;99.90
52209;DHT22;38507;53.132;6.394;2023-12-14T00:28:15;5.00;99.90
52209;DHT22;38507;53.132;6.394;2023-12-14T00:30:41;4.40;99.90
52209;DHT22;38507;53.132;6.394;2023-12-14T00:33:09;4.50;99.90
52209;DHT22;38507;53.132;6.394;2023-12-14T00:35:38;4.40;99.90
52209;DHT22;38507;53.132;6.394;2023-12-14T00:38:03;5.10;99.90
52209;DHT22;38507;53.132;6.394;2023-12-14T00:40:29;5.20;99.90
52209;DHT22;38507;53.132;6.394;2023-12-14T00:42:55;4.30;99.90
52209;DHT22;38507;53.132;6.394;2023-12-14T00:45:20;4.40;99.90
52209;DHT22;38507;53.132;6.394;2023-12-14T00:47:46;4.40;99.90
52209;DHT22;38507;53.132;6.394;2023-12-14T00:50:12;4.30;99.90
52209;DHT22;38507;53.132;6.394;2023-12-14T00:52:37;4.30;99.90
52209;DHT22;38507;53.132;6.394;2023-12-14T00:55:03;4.30;99.90
52209;DHT22;38507;53.132;6.394;2023-12-14T00:57:29;4.30;99.90
52209;DHT22;38507;53.132;6.394;2023-12-14T00:59:55;4.30;99.90
52209;DHT22;38507;53.132;6.394;2023-12-14T01:02:20;4.30;99.90
52209;DHT22;38507;53.132;6.394;2023-12-14T01:04:47;4.30;99.90
52209;DHT22;38507;53.132;6.394;2023-12-14T01:07:12;5.00;99.90
52209;DHT22;38507;53.132;6.394;2023-12-14T01:09:38;4.30;99.90
52209;DHT22;38507;53.132;6.394;2023-12-14T01:12:04;4.30;99.90
52209;DHT22;38507;53.132;6.394;2023-12-14T01:14:30;4.30;99.90
52209;DHT22;38507;53.132;6.394;2023-12-14T01:16:55;4.30;99.90
52209;DHT22;38507;53.132;6.394;2023-12-14T01:19:21;4.80;99.90
52209;DHT22;38507;53.132;6.394;2023-12-14T01:21:47;4.20;99.90
52209;DHT22;38507;53.132;6.394;2023-12-14T01:24:12;4.30;99.90
52209;DHT22;38507;53.132;6.394;2023-12-14T01:26:39;3.70;99.90
52209;DHT22;38507;53.132;6.394;2023-12-14T01:29:05;4.20;99.90
52209;DHT22;38507;53.132;6.394;2023-12-14T01:31:31;4.60;99.90
52209;DHT22;38507;53.132;6.394;2023-12-14T01:33:57;4.30;99.90
52209;DHT22;38507;53.132;6.394;2023-12-14T01:36:24;4.20;99.90
52209;DHT22;38507;53.132;6.394;2023-12-14T01:38:50;4.20;99.90
52209;DHT22;38507;53.132;6.394;2023-12-14T01:41:16;4.30;99.90
52209;DHT22;38507;53.132;6.394;2023-12-14T01:43:42;4.20;99.90
52209;DHT22;38507;53.132;6.394;2023-12-14T01:46:08;4.20;99.90
52209;DHT22;38507;53.132;6.394;2023-12-14T01:48:33;4.20;99.90
52209;DHT22;38507;53.132;6.394;2023-12-14T01:50:59;4.20;99.90
52209;DHT22;38507;53.132;6.394;2023-12-14T01:53:24;4.50;99.90
52209;DHT22;38507;53.132;6.394;2023-12-14T01:55:50;4.20;99.90
52209;DHT22;38507;53.132;6.394;2023-12-14T01:58:16;4.20;99.90
52209;DHT22;38507;53.132;6.394;2023-12-14T02:01:00;5.00;99.90
52209;DHT22;38507;53.132;6.394;2023-12-14T02:03:29;4.20;99.90
52209;DHT22;38507;53.132;6.394;2023-12-14T02:05:54;4.30;99.90
52209;DHT22;38507;53.132;6.394;2023-12-14T02:08:20;4.30;99.90
52209;DHT22;38507;53.132;6.394;2023-12-14T02:10:46;4.30;99.90
52209;DHT22;38507;53.132;6.394;2023-12-14T02:13:13;4.20;99.90
52209;DHT22;38507;53.132;6.394;2023-12-14T02:15:39;4.30;99.90
52209;DHT22;38507;53.132;6.394;2023-12-14T02:18:04;4.30;99.90
52209;DHT22;38507;53.132;6.394;2023-12-14T02:20:30;4.30;99.90
52209;DHT22;38507;53.132;6.394;2023-12-14T02:22:56;4.30;99.90
52209;DHT22;38507;53.132;6.394;2023-12-14T02:25:23;4.30;99.90
52209;DHT22;38507;53.132;6.394;2023-12-14T02:27:50;4.30;99.90
52209;DHT22;38507;53.132;6.394;2023-12-14T02:30:17;4.30;99.90
52209;DHT22;38507;53.132;6.394;2023-12-14T02:32:43;4.50;99.90
52209;DHT22;38507;53.132;6.394;2023-12-14T02:35:09;4.30;99.90
52209;DHT22;38507;53.132;6.394;2023-12-14T02:37:38;5.00;99.90
52209;DHT22;38507;53.132;6.394;2023-12-14T02:40:06;4.40;99.90
52209;DHT22;38507;53.132;6.394;2023-12-14T02:42:32;4.30;99.90
52209;DHT22;38507;53.132;6.394;2023-12-14T02:44:58;4.30;99.90
52209;DHT22;38507;53.132;6.394;2023-12-14T02:47:24;4.30;99.90
52209;DHT22;38507;53.132;6.394;2023-12-14T02:49:50;4.30;99.90
52209;DHT22;38507;53.132;6.394;2023-12-14T02:52:15;4.30;99.90
52209;DHT22;38507;53.132;6.394;2023-12-14T02:54:41;4.20;99.90
52209;DHT22;38507;53.132;6.394;2023-12-14T02:57:07;4.20;99.90
52209;DHT22;38507;53.132;6.394;2023-12-14T02:59:32;4.30;99.90
52209;DHT22;38507;53.132;6.394;2023-12-14T03:01:58;4.30;99.90
52209;DHT22;38507;53.132;6.394;2023-12-14T03:04:24;4.30;99.90
52209;DHT22;38507;53.132;6.394;2023-12-14T03:06:50;4.30;99.90
52209;DHT22;38507;53.132;6.394;2023-12-14T03:09:15;4.30;99.90
52209;DHT22;38507;53.132;6.394;2023-12-14T03:11:41;4.30;99.90
52209;DHT22;38507;53.132;6.394;2023-12-14T03:14:07;4.30;99.90
52209;DHT22;38507;53.132;6.394;2023-12-14T03:16:32;4.50;99.90
52209;DHT22;38507;53.132;6.394;2023-12-14T03:19:01;4.30;99.90
52209;DHT22;38507;53.132;6.394;2023-12-14T03:21:27;4.30;99.90
52209;DHT22;38507;53.132;6.394;2023-12-14T03:23:53;4.20;99.90
52209;DHT22;38507;53.132;6.394;2023-12-14T03:26:18;4.30;99.90
52209;DHT22;38507;53.132;6.394;2023-12-14T03:28:44;4.30;99.90
52209;DHT22;38507;53.132;6.394;2023-12-14T03:31:13;4.30;99.90
52209;DHT22;38507;53.132;6.394;2023-12-14T03:33:40;4.80;99.90
52209;DHT22;38507;53.132;6.394;2023-12-14T03:36:06;4.60;99.90
52209;DHT22;38507;53.132;6.394;2023-12-14T03:38:33;4.30;99.90
52209;DHT22;38507;53.132;6.394;2023-12-14T03:40:59;4.70;99.90
52209;DHT22;38507;53.132;6.394;2023-12-14T03:43:25;4.30;99.90
52209;DHT22;38507;53.132;6.394;2023-12-14T03:45:50;4.30;99.90
52209;DHT22;38507;53.132;6.394;2023-12-14T03:48:16;4.50;99.90
52209;DHT22;38507;53.132;6.394;2023-12-14T03:50:42;4.50;99.90
52209;DHT22;38507;53.132;6.394;2023-12-14T03:53:08;4.30;99.90
52209;DHT22;38507;53.132;6.394;2023-12-14T03:55:33;4.30;99.90
52209;DHT22;38507;53.132;6.394;2023-12-14T03:57:59;4.30;99.90
52209;DHT22;38507;53.132;6.394;2023-12-14T04:00:25;4.30;99.90
52209;DHT22;38507;53.132;6.394;2023-12-14T04:02:51;4.30;99.90
52209;DHT22;38507;53.132;6.394;2023-12-14T04:05:16;4.30;99.90
52209;DHT22;38507;53.132;6.394;2023-12-14T04:07:42;4.30;99.90
52209;DHT22;38507;53.132;6.394;2023-12-14T04:10:09;5.00;99.90
52209;DHT22;38507;53.132;6.394;2023-12-14T04:12:36;4.30;99.90
52209;DHT22;38507;53.132;6.394;2023-12-14T04:15:03;4.30;99.90
52209;DHT22;38507;53.132;6.394;2023-12-14T04:17:28;4.40;99.90
52209;DHT22;38507;53.132;6.394;2023-12-14T04:19:55;4.70;99.90
52209;DHT22;38507;53.132;6.394;2023-12-14T04:22:21;4.30;99.90
52209;DHT22;38507;53.132;6.394;2023-12-14T04:24:46;4.40;99.90
52209;DHT22;38507;53.132;6.394;2023-12-14T04:27:12;4.40;99.90
52209;DHT22;38507;53.132;6.394;2023-12-14T04:29:38;4.30;99.90
52209;DHT22;38507;53.132;6.394;2023-12-14T04:32:04;4.40;99.90
52209;DHT22;38507;53.132;6.394;2023-12-14T04:34:30;4.40;99.90
52209;DHT22;38507;53.132;6.394;2023-12-14T04:36:56;4.40;99.90
52209;DHT22;38507;53.132;6.394;2023-12-14T04:39:26;4.30;99.90
52209;DHT22;38507;53.132;6.394;2023-12-14T04:41:52;4.40;99.90
52209;DHT22;38507;53.132;6.394;2023-12-14T04:44:19;4.30;99.90
52209;DHT22;38507;53.132;6.394;2023-12-14T04:46:44;4.30;99.90
52209;DHT22;38507;53.132;6.394;2023-12-14T04:49:10;4.30;99.90
52209;DHT22;38507;53.132;6.394;2023-12-14T04:51:36;4.30;99.90
52209;DHT22;38507;53.132;6.394;2023-12-14T04:54:02;4.30;99.90
52209;DHT22;38507;53.132;6.394;2023-12-14T04:56:28;4.30;99.90
52209;DHT22;38507;53.132;6.394;2023-12-14T04:58:53;4.30;99.90
52209;DHT22;38507;53.132;6.394;2023-12-14T05:01:19;4.30;99.90
52209;DHT22;38507;53.132;6.394;2023-12-14T05:03:44;4.30;99.90
52209;DHT22;38507;53.132;6.394;2023-12-14T05:06:10;4.30;99.90
52209;DHT22;38507;53.132;6.394;2023-12-14T05:08:36;4.30;99.90
52209;DHT22;38507;53.132;6.394;2023-12-14T05:11:01;4.30;99.90
52209;DHT22;38507;53.132;6.394;2023-12-14T05:13:28;4.30;99.90
52209;DHT22;38507;53.132;6.394;2023-12-14T05:15:53;4.30;99.90
52209;DHT22;38507;53.132;6.394;2023-12-14T05:18:19;4.90;99.90
52209;DHT22;38507;53.132;6.394;2023-12-14T05:20:45;4.30;99.90
52209;DHT22;38507;53.132;6.394;2023-12-14T05:23:11;4.30;99.90
52209;DHT22;38507;53.132;6.394;2023-12-14T05:25:38;4.30;99.90
52209;DHT22;38507;53.132;6.394;2023-12-14T05:28:03;4.30;99.90
52209;DHT22;38507;53.132;6.394;2023-12-14T05:30:29;4.30;99.90
52209;DHT22;38507;53.132;6.394;2023-12-14T05:32:55;4.30;99.90
52209;DHT22;38507;53.132;6.394;2023-12-14T05:35:21;4.30;99.90
52209;DHT22;38507;53.132;6.394;2023-12-14T05:37:48;4.30;99.90
52209;DHT22;38507;53.132;6.394;2023-12-14T05:40:13;4.20;99.90
52209;DHT22;38507;53.132;6.394;2023-12-14T05:42:39;4.20;99.90
52209;DHT22;38507;53.132;6.394;2023-12-14T05:45:08;4.20;99.90
52209;DHT22;38507;53.132;6.394;2023-12-14T05:47:34;4.20;99.90
52209;DHT22;38507;53.132;6.394;2023-12-14T05:50:00;4.20;99.90
52209;DHT22;38507;53.132;6.394;2023-12-14T05:52:26;4.30;99.90
52209;DHT22;38507;53.132;6.394;2023-12-14T05:54:52;4.20;99.90
52209;DHT22;38507;53.132;6.394;2023-12-14T05:57:17;4.30;99.90
52209;DHT22;38507;53.132;6.394;2023-12-14T05:59:43;4.30;99.90
52209;DHT22;38507;53.132;6.394;2023-12-14T06:02:09;4.30;99.90
52209;DHT22;38507;53.132;6.394;2023-12-14T06:04:34;4.30;99.90
52209;DHT22;38507;53.132;6.394;2023-12-14T06:07:00;4.30;99.90
52209;DHT22;38507;53.132;6.394;2023-12-14T06:09:26;4.30;99.90
52209;DHT22;38507;53.132;6.394;2023-12-14T06:12:00;4.30;99.90
52209;DHT22;38507;53.132;6.394;2023-12-14T06:14:26;4.20;99.90
52209;DHT22;38507;53.132;6.394;2023-12-14T06:16:52;4.30;99.90
52209;DHT22;38507;53.132;6.394;2023-12-14T06:19:18;4.30;99.90
52209;DHT22;38507;53.132;6.394;2023-12-14T06:21:43;4.30;99.90
52209;DHT22;38507;53.132;6.394;2023-12-14T06:24:09;4.40;99.90
52209;DHT22;38507;53.132;6.394;2023-12-14T06:26:35;4.30;99.90
52209;DHT22;38507;53.132;6.394;2023-12-14T06:29:00;4.80;99.90
52209;DHT22;38507;53.132;6.394;2023-12-14T06:31:26;4.30;99.90
52209;DHT22;38507;53.132;6.394;2023-12-14T06:33:52;4.30;99.90
52209;DHT22;38507;53.132;6.394;2023-12-14T06:36:17;4.30;99.90
52209;DHT22;38507;53.132;6.394;2023-12-14T06:38:43;4.80;99.90
52209;DHT22;38507;53.132;6.394;2023-12-14T06:41:18;4.50;99.90
52209;DHT22;38507;53.132;6.394;2023-12-14T06:43:44;4.90;99.90
52209;DHT22;38507;53.132;6.394;2023-12-14T06:46:10;4.80;99.90
52209;DHT22;38507;53.132;6.394;2023-12-14T06:48:35;4.30;99.90
52209;DHT22;38507;53.132;6.394;2023-12-14T06:51:01;4.30;99.90
52209;DHT22;38507;53.132;6.394;2023-12-14T06:53:27;4.30;99.90
52209;DHT22;38507;53.132;6.394;2023-12-14T06:55:52;4.90;99.90
52209;DHT22;38507;53.132;6.394;2023-12-14T06:58:18;4.30;99.90
52209;DHT22;38507;53.132;6.394;2023-12-14T07:00:44;4.50;99.90
52209;DHT22;38507;53.132;6.394;2023-12-14T07:03:09;4.30;99.90
52209;DHT22;38507;53.132;6.394;2023-12-14T07:05:35;4.40;99.90
52209;DHT22;38507;53.132;6.394;2023-12-14T07:08:03;4.30;99.90
52209;DHT22;38507;53.132;6.394;2023-12-14T07:10:29;4.30;99.90
52209;DHT22;38507;53.132;6.394;2023-12-14T07:12:55;5.00;99.90
52209;DHT22;38507;53.132;6.394;2023-12-14T07:15:21;4.30;99.90
52209;DHT22;38507;53.132;6.394;2023-12-14T07:17:46;4.30;99.90
52209;DHT22;38507;53.132;6.394;2023-12-14T07:20:12;4.40;99.90
52209;DHT22;38507;53.132;6.394;2023-12-14T07:22:38;4.30;99.90
52209;DHT22;38507;53.132;6.394;2023-12-14T07:25:04;4.40;99.90
52209;DHT22;38507;53.132;6.394;2023-12-14T07:27:29;4.30;99.90
52209;DHT22;38507;53.132;6.394;2023-12-14T07:29:55;4.30;99.90
52209;DHT22;38507;53.132;6.394;2023-12-14T07:32:21;4.40;99.90
52209;DHT22;38507;53.132;6.394;2023-12-14T07:34:47;4.30;99.90
52209;DHT22;38507;53.132;6.394;2023-12-14T07:37:13;4.30;99.90
52209;DHT22;38507;53.132;6.394;2023-12-14T07:39:38;4.30;99.90
52209;DHT22;38507;53.132;6.394;2023-12-14T07:42:04;4.30;99.90
52209;DHT22;38507;53.132;6.394;2023-12-14T07:44:31;4.40;99.90
52209;DHT22;38507;53.132;6.394;2023-12-14T07:46:59;4.40;99.90
52209;DHT22;38507;53.132;6.394;2023-12-14T07:49:25;4.40;99.90
52209;DHT22;38507;53.132;6.394;2023-12-14T07:51:51;5.20;99.90
52209;DHT22;38507;53.132;6.394;2023-12-14T07:54:18;4.90;99.90
52209;DHT22;38507;53.132;6.394;2023-12-14T07:56:44;4.30;99.90
52209;DHT22;38507;53.132;6.394;2023-12-14T07:59:10;4.30;99.90
52209;DHT22;38507;53.132;6.394;2023-12-14T08:01:36;5.10;99.90
52209;DHT22;38507;53.132;6.394;2023-12-14T08:04:02;4.30;99.90
52209;DHT22;38507;53.132;6.394;2023-12-14T08:06:29;4.40;99.90
52209;DHT22;38507;53.132;6.394;2023-12-14T08:08:55;4.70;99.90
52209;DHT22;38507;53.132;6.394;2023-12-14T08:11:23;4.80;99.90
52209;DHT22;38507;53.132;6.394;2023-12-14T08:13:49;5.00;99.90
52209;DHT22;38507;53.132;6.394;2023-12-14T08:16:15;4.80;99.90
52209;DHT22;38507;53.132;6.394;2023-12-14T08:18:43;4.70;99.90
52209;DHT22;38507;53.132;6.394;2023-12-14T08:21:10;4.40;99.90
52209;DHT22;38507;53.132;6.394;2023-12-14T08:23:36;4.40;99.90
52209;DHT22;38507;53.132;6.394;2023-12-14T08:26:01;4.40;99.90
52209;DHT22;38507;53.132;6.394;2023-12-14T08:28:28;4.40;99.90
52209;DHT22;38507;53.132;6.394;2023-12-14T08:30:53;4.50;99.90
52209;DHT22;38507;53.132;6.394;2023-12-14T08:33:19;4.60;99.90
52209;DHT22;38507;53.132;6.394;2023-12-14T08:35:45;5.10;99.90
52209;DHT22;38507;53.132;6.394;2023-12-14T08:38:10;4.50;99.90
52209;DHT22;38507;53.132;6.394;2023-12-14T08:40:37;4.40;99.90
52209;DHT22;38507;53.132;6.394;2023-12-14T08:43:03;4.50;99.90
52209;DHT22;38507;53.132;6.394;2023-12-14T08:45:29;4.40;99.90
52209;DHT22;38507;53.132;6.394;2023-12-14T08:47:55;5.30;99.90
52209;DHT22;38507;53.132;6.394;2023-12-14T08:50:20;5.10;99.90
52209;DHT22;38507;53.132;6.394;2023-12-14T08:52:46;4.60;99.90
52209;DHT22;38507;53.132;6.394;2023-12-14T08:55:12;5.30;99.90
52209;DHT22;38507;53.132;6.394;2023-12-14T08:57:38;5.10;99.90
52209;DHT22;38507;53.132;6.394;2023-12-14T09:00:06;4.70;99.90
52209;DHT22;38507;53.132;6.394;2023-12-14T09:02:32;4.60;99.90
52209;DHT22;38507;53.132;6.394;2023-12-14T09:04:58;4.70;99.90
52209;DHT22;38507;53.132;6.394;2023-12-14T09:07:24;4.90;99.90
52209;DHT22;38507;53.132;6.394;2023-12-14T09:09:50;5.20;99.90
52209;DHT22;38507;53.132;6.394;2023-12-14T09:12:16;4.70;99.90
52209;DHT22;38507;53.132;6.394;2023-12-14T09:14:41;5.10;99.90
52209;DHT22;38507;53.132;6.394;2023-12-14T09:17:07;5.30;99.90
52209;DHT22;38507;53.132;6.394;2023-12-14T09:19:33;4.80;99.90
52209;DHT22;38507;53.132;6.394;2023-12-14T09:21:58;4.80;99.90
52209;DHT22;38507;53.132;6.394;2023-12-14T09:24:24;4.80;99.90
52209;DHT22;38507;53.132;6.394;2023-12-14T09:26:50;4.80;99.90
52209;DHT22;38507;53.132;6.394;2023-12-14T09:29:16;5.20;99.90
52209;DHT22;38507;53.132;6.394;2023-12-14T09:31:46;4.80;99.90
52209;DHT22;38507;53.132;6.394;2023-12-14T09:34:12;5.50;99.90
52209;DHT22;38507;53.132;6.394;2023-12-14T09:36:38;4.90;99.90
52209;DHT22;38507;53.132;6.394;2023-12-14T09:39:04;5.40;99.90
52209;DHT22;38507;53.132;6.394;2023-12-14T09:41:30;4.90;99.90
52209;DHT22;38507;53.132;6.394;2023-12-14T09:43:56;5.20;99.90
52209;DHT22;38507;53.132;6.394;2023-12-14T09:46:25;4.90;99.90
52209;DHT22;38507;53.132;6.394;2023-12-14T09:48:51;5.00;99.90
52209;DHT22;38507;53.132;6.394;2023-12-14T09:51:18;5.00;99.90
52209;DHT22;38507;53.132;6.394;2023-12-14T09:53:44;5.50;99.90
52209;DHT22;38507;53.132;6.394;2023-12-14T09:56:10;5.00;99.90
52209;DHT22;38507;53.132;6.394;2023-12-14T09:58:35;5.00;99.90
52209;DHT22;38507;53.132;6.394;2023-12-14T10:01:02;5.30;99.90
52209;DHT22;38507;53.132;6.394;2023-12-14T10:03:30;5.10;99.90
52209;DHT22;38507;53.132;6.394;2023-12-14T10:05:58;5.40;99.90
52209;DHT22;38507;53.132;6.394;2023-12-14T10:08:25;5.60;99.90
52209;DHT22;38507;53.132;6.394;2023-12-14T10:10:52;5.70;99.90
52209;DHT22;38507;53.132;6.394;2023-12-14T10:13:46;5.80;99.90
52209;DHT22;38507;53.132;6.394;2023-12-14T10:16:12;5.30;99.90
52209;DHT22;38507;53.132;6.394;2023-12-14T10:18:37;5.20;99.90
52209;DHT22;38507;53.132;6.394;2023-12-14T10:21:06;5.90;99.90
52209;DHT22;38507;53.132;6.394;2023-12-14T10:23:33;6.00;99.90
52209;DHT22;38507;53.132;6.394;2023-12-14T10:26:00;5.20;99.90
52209;DHT22;38507;53.132;6.394;2023-12-14T10:28:26;5.30;99.90
52209;DHT22;38507;53.132;6.394;2023-12-14T10:30:52;5.30;99.90
52209;DHT22;38507;53.132;6.394;2023-12-14T10:33:18;5.40;99.90
52209;DHT22;38507;53.132;6.394;2023-12-14T10:35:43;6.10;99.90
52209;DHT22;38507;53.132;6.394;2023-12-14T10:38:12;5.70;99.90
52209;DHT22;38507;53.132;6.394;2023-12-14T10:40:40;6.10;99.90
52209;DHT22;38507;53.132;6.394;2023-12-14T10:43:09;5.50;99.90
52209;DHT22;38507;53.132;6.394;2023-12-14T10:45:36;6.00;99.90
52209;DHT22;38507;53.132;6.394;2023-12-14T10:48:04;5.60;99.90
52209;DHT22;38507;53.132;6.394;2023-12-14T10:50:30;5.50;99.90
52209;DHT22;38507;53.132;6.394;2023-12-14T10:52:57;6.00;99.90
52209;DHT22;38507;53.132;6.394;2023-12-14T10:55:44;5.60;99.90
52209;DHT22;38507;53.132;6.394;2023-12-14T10:58:10;5.60;99.90
52209;DHT22;38507;53.132;6.394;2023-12-14T11:00:37;5.60;99.90
52209;DHT22;38507;53.132;6.394;2023-12-14T11:03:04;5.50;99.90
52209;DHT22;38507;53.132;6.394;2023-12-14T11:05:32;5.60;99.90
52209;DHT22;38507;53.132;6.394;2023-12-14T11:08:03;5.60;99.90
52209;DHT22;38507;53.132;6.394;2023-12-14T11:10:42;5.70;99.90
52209;DHT22;38507;53.132;6.394;2023-12-14T11:13:13;5.60;99.90
52209;DHT22;38507;53.132;6.394;2023-12-14T11:15:40;6.40;99.90
52209;DHT22;38507;53.132;6.394;2023-12-14T11:23:15;5.80;99.90
52209;DHT22;38507;53.132;6.394;2023-12-14T11:25:56;5.80;99.90
52209;DHT22;38507;53.132;6.394;2023-12-14T11:28:22;6.20;99.90
52209;DHT22;38507;53.132;6.394;2023-12-14T11:30:48;5.90;99.90
52209;DHT22;38507;53.132;6.394;2023-12-14T11:33:15;6.00;99.90
52209;DHT22;38507;53.132;6.394;2023-12-14T11:35:41;5.80;99.90
52209;DHT22;38507;53.132;6.394;2023-12-14T11:38:07;6.00;99.90
52209;DHT22;38507;53.132;6.394;2023-12-14T11:40:47;6.10;99.90
52209;DHT22;38507;53.132;6.394;2023-12-14T11:43:14;6.10;99.90
52209;DHT22;38507;53.132;6.394;2023-12-14T11:45:41;6.10;99.90
52209;DHT22;38507;53.132;6.394;2023-12-14T11:48:08;6.10;99.90
52209;DHT22;38507;53.132;6.394;2023-12-14T11:50:36;6.10;99.90
52209;DHT22;38507;53.132;6.394;2023-12-14T11:53:03;6.10;99.90
52209;DHT22;38507;53.132;6.394;2023-12-14T11:55:29;6.10;99.90
52209;DHT22;38507;53.132;6.394;2023-12-14T11:57:58;6.10;99.90
52209;DHT22;38507;53.132;6.394;2023-12-14T12:00:25;6.10;99.90
52209;DHT22;38507;53.132;6.394;2023-12-14T12:02:53;6.10;99.90
52209;DHT22;38507;53.132;6.394;2023-12-14T12:05:51;6.10;99.90
52209;DHT22;38507;53.132;6.394;2023-12-14T12:08:19;6.20;99.90
52209;DHT22;38507;53.132;6.394;2023-12-14T12:10:45;6.10;99.90
52209;DHT22;38507;53.132;6.394;2023-12-14T12:13:20;6.10;99.90
52209;DHT22;38507;53.132;6.394;2023-12-14T12:15:46;6.10;99.90
52209;DHT22;38507;53.132;6.394;2023-12-14T12:18:14;6.10;99.90
52209;DHT22;38507;53.132;6.394;2023-12-14T12:20:40;6.10;99.90
52209;DHT22;38507;53.132;6.394;2023-12-14T12:23:05;6.10;99.90
52209;DHT22;38507;53.132;6.394;2023-12-14T12:25:32;6.10;99.90
52209;DHT22;38507;53.132;6.394;2023-12-14T12:27:59;6.00;99.90
52209;DHT22;38507;53.132;6.394;2023-12-14T12:30:25;6.00;99.90
52209;DHT22;38507;53.132;6.394;2023-12-14T12:32:51;6.00;99.90
52209;DHT22;38507;53.132;6.394;2023-12-14T12:35:20;6.00;99.90
52209;DHT22;38507;53.132;6.394;2023-12-14T12:37:46;6.00;99.90
52209;DHT22;38507;53.132;6.394;2023-12-14T12:40:12;5.90;99.90
52209;DHT22;38507;53.132;6.394;2023-12-14T12:42:38;5.90;99.90
52209;DHT22;38507;53.132;6.394;2023-12-14T12:45:05;6.40;99.90
52209;DHT22;38507;53.132;6.394;2023-12-14T12:47:31;5.90;99.90
52209;DHT22;38507;53.132;6.394;2023-12-14T12:49:57;5.90;99.90
52209;DHT22;38507;53.132;6.394;2023-12-14T12:52:22;5.90;99.90
52209;DHT22;38507;53.132;6.394;2023-12-14T12:54:48;5.80;99.90
52209;DHT22;38507;53.132;6.394;2023-12-14T12:57:14;5.80;99.90
52209;DHT22;38507;53.132;6.394;2023-12-14T12:59:39;5.80;99.90
52209;DHT22;38507;53.132;6.394;2023-12-14T13:02:05;5.80;99.90
52209;DHT22;38507;53.132;6.394;2023-12-14T13:04:31;6.30;99.90
52209;DHT22;38507;53.132;6.394;2023-12-14T13:06:57;6.30;99.90
52209;DHT22;38507;53.132;6.394;2023-12-14T13:09:23;5.80;99.90
52209;DHT22;38507;53.132;6.394;2023-12-14T13:11:49;5.80;99.90
52209;DHT22;38507;53.132;6.394;2023-12-14T13:14:15;5.80;99.90
52209;DHT22;38507;53.132;6.394;2023-12-14T13:16:43;5.80;99.90
52209;DHT22;38507;53.132;6.394;2023-12-14T13:19:09;5.80;99.90
52209;DHT22;38507;53.132;6.394;2023-12-14T13:21:35;5.80;99.90
52209;DHT22;38507;53.132;6.394;2023-12-14T13:24:01;6.30;99.90
52209;DHT22;38507;53.132;6.394;2023-12-14T13:26:27;5.90;99.90
52209;DHT22;38507;53.132;6.394;2023-12-14T13:28:53;6.40;99.90
52209;DHT22;38507;53.132;6.394;2023-12-14T13:31:19;5.90;99.90
52209;DHT22;38507;53.132;6.394;2023-12-14T13:33:48;5.80;99.90
52209;DHT22;38507;53.132;6.394;2023-12-14T13:36:14;5.80;99.90
52209;DHT22;38507;53.132;6.394;2023-12-14T13:38:41;5.80;99.90
52209;DHT22;38507;53.132;6.394;2023-12-14T13:41:07;6.40;99.90
52209;DHT22;38507;53.132;6.394;2023-12-14T13:43:33;5.80;99.90
52209;DHT22;38507;53.132;6.394;2023-12-14T13:45:59;5.80;99.90
52209;DHT22;38507;53.132;6.394;2023-12-14T13:48:26;5.80;99.90
52209;DHT22;38507;53.132;6.394;2023-12-14T13:50:52;5.70;99.90
52209;DHT22;38507;53.132;6.394;2023-12-14T13:53:18;5.70;99.90
52209;DHT22;38507;53.132;6.394;2023-12-14T13:55:44;5.70;99.90
52209;DHT22;38507;53.132;6.394;2023-12-14T13:58:10;5.70;99.90
52209;DHT22;38507;53.132;6.394;2023-12-14T14:00:36;5.70;99.90
52209;DHT22;38507;53.132;6.394;2023-12-14T14:03:02;5.60;99.90
52209;DHT22;38507;53.132;6.394;2023-12-14T14:05:29;5.60;99.90
52209;DHT22;38507;53.132;6.394;2023-12-14T14:07:55;5.60;99.90
52209;DHT22;38507;53.132;6.394;2023-12-14T14:10:21;5.60;99.90
52209;DHT22;38507;53.132;6.394;2023-12-14T14:12:47;6.10;99.90
52209;DHT22;38507;53.132;6.394;2023-12-14T14:15:12;5.60;99.90
52209;DHT22;38507;53.132;6.394;2023-12-14T14:17:38;5.60;99.90
52209;DHT22;38507;53.132;6.394;2023-12-14T14:20:05;5.60;99.90
52209;DHT22;38507;53.132;6.394;2023-12-14T14:22:32;5.50;99.90
52209;DHT22;38507;53.132;6.394;2023-12-14T14:24:58;5.60;99.90
52209;DHT22;38507;53.132;6.394;2023-12-14T14:27:23;6.00;99.90
52209;DHT22;38507;53.132;6.394;2023-12-14T14:29:52;5.60;99.90
52209;DHT22;38507;53.132;6.394;2023-12-14T14:32:21;5.60;99.90
52209;DHT22;38507;53.132;6.394;2023-12-14T14:34:46;5.60;99.90
52209;DHT22;38507;53.132;6.394;2023-12-14T14:37:12;5.60;99.90
52209;DHT22;38507;53.132;6.394;2023-12-14T14:39:37;5.60;99.90
52209;DHT22;38507;53.132;6.394;2023-12-14T14:42:05;5.60;99.90
52209;DHT22;38507;53.132;6.394;2023-12-14T14:44:31;5.60;99.90
52209;DHT22;38507;53.132;6.394;2023-12-14T14:46:58;5.60;99.90
52209;DHT22;38507;53.132;6.394;2023-12-14T14:49:23;5.80;99.90
52209;DHT22;38507;53.132;6.394;2023-12-14T14:51:49;5.50;99.90
52209;DHT22;38507;53.132;6.394;2023-12-14T14:54:14;5.50;99.90
52209;DHT22;38507;53.132;6.394;2023-12-14T14:56:41;5.60;99.90
52209;DHT22;38507;53.132;6.394;2023-12-14T14:59:06;5.60;99.90
52209;DHT22;38507;53.132;6.394;2023-12-14T15:01:34;6.00;99.90
52209;DHT22;38507;53.132;6.394;2023-12-14T15:04:00;5.50;99.90
52209;DHT22;38507;53.132;6.394;2023-12-14T15:06:25;5.50;99.90
52209;DHT22;38507;53.132;6.394;2023-12-14T15:08:51;5.50;99.90
52209;DHT22;38507;53.132;6.394;2023-12-14T15:11:17;5.50;99.90
52209;DHT22;38507;53.132;6.394;2023-12-14T15:13:42;5.50;99.90
52209;DHT22;38507;53.132;6.394;2023-12-14T15:16:08;5.50;99.90
52209;DHT22;38507;53.132;6.394;2023-12-14T15:18:34;5.50;99.90
52209;DHT22;38507;53.132;6.394;2023-12-14T15:21:07;5.50;99.90
52209;DHT22;38507;53.132;6.394;2023-12-14T15:23:33;5.50;99.90
52209;DHT22;38507;53.132;6.394;2023-12-14T15:25:58;5.40;99.90
52209;DHT22;38507;53.132;6.394;2023-12-14T15:28:24;5.40;99.90
52209;DHT22;38507;53.132;6.394;2023-12-14T15:30:50;5.30;99.90
52209;DHT22;38507;53.132;6.394;2023-12-14T15:33:16;5.30;99.90
52209;DHT22;38507;53.132;6.394;2023-12-14T15:35:41;5.20;99.90
52209;DHT22;38507;53.132;6.394;2023-12-14T15:38:07;5.20;99.90
52209;DHT22;38507;53.132;6.394;2023-12-14T15:40:33;5.10;99.90
52209;DHT22;38507;53.132;6.394;2023-12-14T15:43:01;5.10;99.90
52209;DHT22;38507;53.132;6.394;2023-12-14T15:45:26;5.00;99.90